• Join FlightAware (Why Join?)
  • Login
  • US Flag 
01:32AM EST


 

Airport Tracker/Info


-or-


 

Live Flight TrackerFlight Track Log ✈ DAL6241 ✈ 28-Dec-2013 ✈ KDTW - KSAV

Flight Track Log - Related Links

Times and Time Zones

All times are in EST time to prevent confusion due to time zone crossing. See the DAL6241 flight status page for this flight to view local times or setup timezone preferences in your user account.

Time Position Orientation Groundspeed Altitude Reporting Facility
EST Latitude Longitude Course Direction KTS MPH feet Rate Location/Type
02:53PM 42.2039 -83.3697 204° Southwest 152 175 1,500  Level Cleveland Center
02:54PM 42.1547 -83.3797 189° South 197 227 3,400 1,560 Climbing Cleveland Center
02:55PM 42.1436 -83.3828 192° South 184 212 3,800 2,040 Climbing Cleveland Center
02:55PM 42.0972 -83.3911 188° South 246 283 5,300 2,460 Climbing Cleveland Center
02:56PM 42.0653 -83.3969 188° South 238 274 6,400 2,580 Climbing Cleveland Center
02:56PM 42.0133 -83.4186 197° South 260 299 8,500 2,700 Climbing Cleveland Center
02:57PM 41.9953 -83.4261 197° South 256 295 9,200 2,400 Climbing Cleveland Center
02:57PM 41.9422 -83.4450 195° South 280 322 11,000 2,040 Climbing Cleveland Center
02:58PM 41.9203 -83.4531 195° South 271 312 11,300 1,440 Climbing Cleveland Center
02:59PM 41.5479 -83.1918 204° Southwest  Level Estimated
02:59PM 41.8469 -83.4819 196° South 339 390 12,600  Level Cleveland Center
02:59PM 41.8286 -83.4856 188° South 317 365 12,900 300 Climbing Cleveland Center
03:00PM 41.7297 -83.5236 196° South 362 417 13,000 720 Climbing Cleveland Center
03:01PM 41.6292 -83.5606 195° South 375 432 14,400 1,560 Climbing Cleveland Center
03:02PM 41.5294 -83.5975 196° South 372 428 16,300 1,740 Climbing Cleveland Center
03:03PM 41.4261 -83.6347 195° South 383 441 18,100 1,980 Climbing Cleveland Center
03:04PM 41.3050 -83.6781 195° South 377 434 20,400 1,860 Climbing Cleveland Center
03:05PM 41.2017 -83.7167 196° South 385 443 22,000 1,440 Climbing Cleveland Center
03:06PM 41.1142 -83.7478 195° South 389 448 23,200 1,380 Climbing Indianapolis Center
03:07PM 40.9972 -83.7908 196° South 397 457 24,700 1,380 Climbing Indianapolis Center
03:08PM 40.8908 -83.8286 195° South 398 458 26,100 1,200 Climbing Indianapolis Center
03:09PM 40.7828 -83.8661 195° South 400 460 27,200 1,080 Climbing Indianapolis Center
03:10PM 40.6744 -83.9044 195° South 405 466 28,400 1,380 Climbing Indianapolis Center
03:11PM 40.5681 -83.9422 195° South 398 458 30,100 1,200 Climbing Indianapolis Center
03:12PM 40.4453 -83.9858 195° South 385 443 31,000 780 Climbing Indianapolis Center
03:13PM 40.3406 -84.0231 195° South 390 449 31,800 480 Climbing Indianapolis Center
03:14PM 40.2339 -84.0531 192° South 394 453 32,000 60 Climbing Indianapolis Center
03:15PM 40.1217 -84.0708 187° South 406 467 32,000  Level Indianapolis Center
03:16PM 40.0103 -84.0897 187° South 407 468 32,000 420 Level Indianapolis Center
03:17PM 39.8781 -84.1108 187° South 404 465 32,900 1,140 Climbing Indianapolis Center
03:18PM 39.7725 -84.1292 188° South 393 452 34,400 1,020 Climbing Indianapolis Center
03:19PM 39.6719 -84.1458 187° South 374 430 35,000 240 Climbing Indianapolis Center
03:20PM 39.5694 -84.1622 187° South 372 428 35,000 180 Level Indianapolis Center
03:21PM 39.4628 -84.1794 187° South 384 442 35,400 540 Climbing Indianapolis Center
03:22PM 39.3617 -84.1961 187° South 373 429 36,200 960 Climbing Indianapolis Center
03:23PM 39.2422 -84.2150 187° South 363 418 37,400 840 Climbing Indianapolis Center
03:24PM 39.1478 -84.2314 188° South 347 399 38,000 180 Climbing Indianapolis Center
03:27PM 38.9519 -84.2639 187° South 358 412 38,000  Level Indianapolis Center
03:28PM 38.8503 -84.2778 186° South 366 421 38,000  Level Indianapolis Center
03:29PM 38.7422 -84.2653 175° South 391 450 38,000  Level Indianapolis Center
03:30PM 38.6081 -84.2475 174° South 393 452 38,000  Level Indianapolis Center
03:31PM 38.4986 -84.2317 174° South 394 453 38,000  Level Indianapolis Center
03:32PM 38.3894 -84.2167 174° South 394 453 38,000  Level Indianapolis Center
03:33PM 38.2797 -84.2028 174° South 396 456 38,000  Level Indianapolis Center
03:34PM 38.1686 -84.1878 174° South 399 459 38,000  Level Indianapolis Center
03:35PM 38.0597 -84.1728 174° South 395 455 38,000  Level Indianapolis Center
03:36PM 37.9317 -84.1539 173° South 395 455 38,000  Level Indianapolis Center
03:37PM 37.8203 -84.1417 175° South 399 459 38,000  Level Indianapolis Center
03:38PM 37.7103 -84.1269 174° South 398 458 38,000  Level Indianapolis Center
03:39PM 37.6000 -84.1125 174° South 396 456 38,000  Level Indianapolis Center
03:40PM 37.4911 -84.0969 174° South 395 455 38,000  Level Indianapolis Center
03:41PM 37.3800 -84.0831 174° South 398 458 38,000  Level Indianapolis Center
03:42PM 37.2514 -84.0669 174° South 398 458 38,000  Level Indianapolis Center
03:43PM 37.1408 -84.0525 174° South 399 459 38,000  Level Indianapolis Center
03:44PM 37.0294 -84.0369 174° South 401 461 38,000  Level Indianapolis Center
03:45PM 36.9189 -84.0236 174° South 400 460 38,000  Level Indianapolis Center
03:46PM 36.8072 -84.0094 174° South 402 463 38,000  Level Indianapolis Center
03:47PM 36.6950 -83.9947 174° South 405 466 38,000  Level Indianapolis Center
03:48PM 36.5633 -83.9783 174° South 406 467 38,000  Level Indianapolis Center
03:49PM 36.4433 -83.9633 174° South 408 470 38,000  Level Indianapolis Center
03:50PM 36.3278 -83.9472 174° South 413 475 38,000  Level Indianapolis Center
03:51PM 36.2119 -83.9325 174° South 416 479 38,000  Level Indianapolis Center
03:52PM 36.0981 -83.9178 174° South 411 473 38,000  Level Indianapolis Center
03:53PM 36.0103 -83.9078 175° South 405 466 38,000  Level Atlanta Center
03:54PM 35.8975 -83.8825 170° South 405 466 38,000  Level Atlanta Center
03:55PM 35.7931 -83.8058 149° Southeast 420 483 38,000  Level Atlanta Center
03:56PM 35.6908 -83.7217 146° Southeast 425 489 38,000  Level Atlanta Center
03:57PM 35.5861 -83.6378 147° Southeast 446 513 38,000  Level Atlanta Center
03:58PM 35.4817 -83.5542 147° Southeast 451 519 38,000  Level Atlanta Center
03:59PM 35.3747 -83.4681 147° Southeast 457 526 38,000  Level Atlanta Center
04:00PM 35.2700 -83.3825 146° Southeast 457 526 38,000  Level Atlanta Center
04:01PM 35.1611 -83.3019 149° Southeast 462 532 38,000  Level Atlanta Center
04:02PM 35.0561 -83.2142 146° Southeast 462 532 38,000 -60 Level Atlanta Center
04:03PM 34.9492 -83.1317 148° Southeast 462 532 37,900 -900 Descending Atlanta Center
04:04PM 34.8336 -83.0367 146° Southeast 487 560 36,300 -1,500 Descending Atlanta Center
04:05PM 34.7203 -82.9497 148° Southeast 492 566 35,000 -660 Descending Atlanta Center
04:06PM 34.6089 -82.8603 147° Southeast 486 559 35,000 -240 Level Atlanta Center
04:07PM 34.4869 -82.7661 148° Southeast 479 551 34,600 -540 Descending Atlanta Center
04:08PM 34.3731 -82.6797 148° Southeast 485 558 34,000 -900 Descending Atlanta Center
04:09PM 34.2636 -82.5911 146° Southeast 480 552 32,800 -1,320 Descending Atlanta Center
04:10PM 34.1500 -82.5050 148° Southeast 480 552 31,400 -1,500 Descending Atlanta Center
04:11PM 34.0319 -82.4144 148° Southeast 502 578 29,900 -1,200 Descending Atlanta Center
04:12PM 33.9158 -82.3267 148° Southeast 502 578 29,000 -660 Descending Atlanta Center
04:13PM 33.8186 -82.2461 145° Southeast 488 562 28,600 -1,020 Descending Atlanta Center
04:14PM 33.7025 -82.1586 148° Southeast 488 562 27,000 -1,860 Descending Atlanta Center
04:16PM 33.4744 -82.0186 153° Southeast 496 571 23,300 -1,920 Descending Jacksonville Center
04:17PM 33.3633 -81.9500 153° Southeast 470 541 21,500 -1,800 Descending Jacksonville Center
04:18PM 33.2606 -81.8914 155° Southeast 436 502 19,700 -1,800 Descending Jacksonville Center
04:19PM 33.1619 -81.8306 153° Southeast 411 473 18,000 -1,500 Descending Jacksonville Center
04:20PM 33.0633 -81.7672 152° Southeast 404 465 16,700 -1,500 Descending Jacksonville Center
04:21PM 32.9647 -81.7067 153° Southeast 404 465 15,100 -1,500 Descending Jacksonville Center
04:22PM 32.8808 -81.6558 153° Southeast 390 449 13,700 -1,380 Descending Jacksonville Center
04:23PM 32.7883 -81.6028 154° Southeast 381 438 12,400 -1,320 Descending Jacksonville Center
04:24PM 32.6981 -81.5472 153° Southeast 376 433 11,100 -660 Descending Jacksonville Center
04:25PM 32.6119 -81.4967 154° Southeast 354 407 11,100 -240 Level Jacksonville Center
04:26PM 32.5236 -81.4439 153° Southeast 326 375 10,700 -720 Descending Jacksonville Center
04:27PM 32.4522 -81.4131 160° South 283 326 9,700 -1,200 Descending Jacksonville Center
04:28PM 32.3914 -81.3919 164° South 239 275 8,400 -1,560 Descending Jacksonville Center
04:29PM 32.3353 -81.3978 185° South 208 239 6,600 -1,740 Descending Jacksonville Center
04:30PM 32.2872 -81.4058 188° South 203 234 5,000 -1,740 Descending Jacksonville Center
04:31PM 32.2289 -81.4214 193° South 197 227 3,200 -1,380 Descending Jacksonville Center
04:32PM 32.1811 -81.4247 183° South 186 214 2,300 -600 Descending Jacksonville Center
04:33PM 32.1411 -81.4131 166° South 162 186 2,000 -180 Descending Jacksonville Center
04:34PM 32.1303 -81.3692 106° East 144 166 2,000  Level Jacksonville Center
04:36PM 32.1167 -81.2000 North  Level FlightAware Approximate
04:43PM 32.1276 -81.2021 North  Level Estimated
04:44PM 32.1276 -81.2021 North  Level Estimated
04:45PM 32.1276 -81.2021 North  Level Estimated
04:46PM 32.1276 -81.2021 North  Level Estimated